Time;durP1;ratioP1;P1;durP2;ratioP2;P2;SDS_P1;SDS_P2;PMS_P1;PMS_P2;Temp;Humidity;BMP_temperature;BMP_pressure;BME280_temperature;BME280_humidity;BME280_pressure;Samples;Min_cycle;Max_cycle;Signal;HPM_P1;HPM_P2
2021/06/13 00:00:14;;;;;;;;;;;;;;;14.18;62.57;102690.06;5136619;27;20276;-39
2021/06/13 00:02:40;;;;;;;14.82;6.50;;;;;;;13.93;64.49;102684.44;5136066;27;19910;-39
2021/06/13 00:05:06;;;;;;;;;;;;;;;14.13;62.30;102693.41;5137699;27;20397;-39
2021/06/13 00:07:32;;;;;;;12.05;5.82;;;;;;;13.94;64.42;102686.09;5135980;27;20350;-39
2021/06/13 00:09:57;;;;;;;13.23;6.00;;;;;;;14.00;64.25;102685.25;5136602;27;20023;-39
2021/06/13 00:12:22;;;;;;;14.90;6.30;;;;;;;13.92;64.64;102682.75;5135189;27;20426;-39
2021/06/13 00:14:48;;;;;;;13.07;6.60;;;;;;;13.94;64.40;102683.38;5136509;27;20253;-39
2021/06/13 00:17:16;;;;;;;11.93;6.60;;;;;;;13.84;64.87;102686.50;5136078;27;20018;-39
2021/06/13 00:19:42;;;;;;;10.30;5.97;;;;;;;13.81;65.28;102691.50;5136088;27;20042;-39
2021/06/13 00:22:07;;;;;;;13.13;6.18;;;;;;;13.72;65.33;102690.06;5136024;27;20102;-39
2021/06/13 00:24:33;;;;;;;13.10;6.47;;;;;;;13.61;65.88;102683.34;5136180;27;20039;-39
2021/06/13 00:26:58;;;;;;;12.83;6.07;;;;;;;13.76;65.55;102685.88;5135939;27;20076;-39
2021/06/13 00:29:23;;;;;;;12.50;6.60;;;;;;;13.71;65.98;102683.75;5136003;27;20076;-39
2021/06/13 00:31:49;;;;;;;12.30;6.33;;;;;;;13.60;66.38;102690.66;5135839;27;20352;-39
2021/06/13 00:34:15;;;;;;;10.93;6.43;;;;;;;13.69;65.90;102704.06;5136328;27;20015;-39
2021/06/13 00:36:40;;;;;;;15.15;6.95;;;;;;;13.59;66.27;102701.75;5135520;27;20106;-39
2021/06/13 00:39:05;;;;;;;13.43;6.33;;;;;;;13.59;66.50;102697.13;5136223;27;20023;-39
2021/06/13 00:41:31;;;;;;;13.27;6.22;;;;;;;13.56;66.40;102702.97;5136509;27;20023;-39
2021/06/13 00:43:57;;;;;;;12.38;6.85;;;;;;;13.47;66.29;102692.50;5136452;27;20050;-39
2021/06/13 00:46:22;;;;;;;12.20;5.95;;;;;;;13.42;66.93;102704.00;5135585;27;20474;-39
2021/06/13 00:48:47;;;;;;;13.00;6.67;;;;;;;13.31;66.90;102704.59;5135234;27;20043;-39
2021/06/13 00:51:13;;;;;;;15.70;7.00;;;;;;;13.23;67.19;102705.63;5135633;27;20019;-39
2021/06/13 00:53:39;;;;;;;13.25;6.10;;;;;;;13.34;67.25;102713.16;5136066;27;20102;-39
2021/06/13 00:56:05;;;;;;;15.48;7.20;;;;;;;13.31;67.34;102715.44;5135703;27;20499;-39
2021/06/13 00:58:31;;;;;;;12.88;6.80;;;;;;;13.21;68.17;102706.81;5135239;27;20019;-39
2021/06/13 01:00:56;;;;;;;;;;;;;;;13.44;66.74;102711.94;5135742;27;20041;-42
2021/06/13 01:03:21;;;;;;;15.33;7.20;;;;;;;13.07;68.40;102711.34;5135163;27;19903;-40
2021/06/13 01:05:47;;;;;;;13.45;7.13;;;;;;;13.25;67.94;102710.84;5135797;27;20165;-39
2021/06/13 01:08:42;;;;;;;14.53;6.80;;;;;;;13.22;67.83;102708.53;5135125;27;20412;-39
2021/06/13 01:11:28;;;;;;;14.10;6.82;;;;;;;13.09;68.43;102707.41;5126391;27;20035;-39
2021/06/13 01:14:09;;;;;;;15.37;7.43;;;;;;;13.20;67.68;102700.56;5135118;27;20051;-39
2021/06/13 01:16:53;;;;;;;14.25;7.50;;;;;;;13.05;68.34;102714.28;5135015;27;20325;-39
2021/06/13 01:19:22;;;;;;;14.73;7.50;;;;;;;13.07;68.52;102714.91;5135548;27;20110;-39
2021/06/13 01:22:12;;;;;;;12.93;6.55;;;;;;;13.03;68.14;102708.22;5134482;27;20023;-39
2021/06/13 01:24:55;;;;;;;16.98;8.20;;;;;;;13.08;68.33;102710.34;5135147;27;20094;-39
2021/06/13 01:27:54;;;;;;;15.70;7.32;;;;;;;13.07;68.37;102712.19;5134896;27;20047;-39
2021/06/13 01:30:19;;;;;;;15.95;7.32;;;;;;;13.04;69.06;102715.31;5135113;27;20016;-39
2021/06/13 01:32:45;;;;;;;13.40;7.95;;;;;;;13.05;69.08;102706.13;5135167;27;20045;-39
2021/06/13 01:35:18;;;;;;;14.27;6.90;;;;;;;13.07;68.69;102714.91;5133612;27;20477;-39
2021/06/13 01:37:50;;;;;;;14.73;7.75;;;;;;;12.97;69.03;102708.19;5135483;27;20023;-39
2021/06/13 01:40:19;;;;;;;13.82;6.60;;;;;;;12.84;69.64;102703.53;5134705;27;20053;-39
2021/06/13 01:42:48;;;;;;;18.10;7.57;;;;;;;12.81;69.22;102693.91;5134613;27;20061;-39
2021/06/13 01:45:17;;;;;;;17.50;7.68;;;;;;;12.73;69.75;102695.94;5134947;27;20023;-40
2021/06/13 01:47:43;;;;;;;9.60;6.40;;;;;;;12.70;69.95;102697.19;5134814;27;20019;-40
2021/06/13 01:50:10;;;;;;;14.27;7.55;;;;;;;12.77;69.74;102702.66;5135300;27;20042;-40
2021/06/13 01:52:38;;;;;;;13.65;7.18;;;;;;;12.75;69.76;102708.28;5134557;27;20023;-40
2021/06/13 01:55:06;;;;;;;17.30;7.40;;;;;;;12.56;70.77;102698.97;5135072;27;20046;-40
2021/06/13 01:57:33;;;;;;;12.48;6.90;;;;;;;12.72;70.72;102702.41;5134639;27;20359;-40
2021/06/13 02:00:00;;;;;;;22.02;8.55;;;;;;;12.67;70.42;102696.75;5134730;27;20046;-40
2021/06/13 02:02:26;;;;;;;;;;;;;;;12.77;68.13;102698.03;5134845;27;20035;-39
2021/06/13 02:04:52;;;;;;;14.70;7.70;;;;;;;12.56;70.42;102695.44;5133067;28;19911;-40
2021/06/13 02:07:19;;;;;;;12.35;7.63;;;;;;;12.43;70.42;102707.03;5134020;27;20027;-40
2021/06/13 02:09:46;;;;;;;14.45;7.88;;;;;;;12.44;70.30;102702.44;5134376;27;20026;-40
2021/06/13 02:12:12;;;;;;;14.77;7.50;;;;;;;12.32;70.68;102699.44;5133972;27;20455;-40
2021/06/13 02:14:40;;;;;;;16.50;8.23;;;;;;;12.31;70.98;102705.91;5134032;27;20034;-40
2021/06/13 02:17:06;;;;;;;13.93;8.20;;;;;;;12.22;71.70;102707.09;5133938;27;20019;-39
2021/06/13 02:19:33;;;;;;;12.68;7.35;;;;;;;12.16;71.05;102699.75;5134416;27;20015;-39
2021/06/13 02:22:00;;;;;;;16.25;7.75;;;;;;;12.09;72.40;102705.94;5133925;27;20416;-39
2021/06/13 02:24:33;;;;;;;20.50;8.02;;;;;;;12.06;71.85;102694.66;5134249;27;20043;-39
2021/06/13 02:26:59;;;;;;;15.43;8.27;;;;;;;12.10;72.26;102702.19;5134918;27;20038;-39
2021/06/13 02:29:27;;;;;;;11.32;7.63;;;;;;;12.03;72.85;102709.44;5134060;27;20030;-39
2021/06/13 02:31:55;;;;;;;13.95;8.00;;;;;;;12.14;72.66;102712.63;5133845;27;20027;-39
2021/06/13 02:34:23;;;;;;;12.07;7.70;;;;;;;12.00;72.41;102707.09;5134915;27;20058;-39
2021/06/13 02:36:51;;;;;;;14.75;7.68;;;;;;;12.03;72.75;102714.84;5138336;27;20516;-39
2021/06/13 02:39:17;;;;;;;15.38;8.30;;;;;;;11.93;72.50;102711.63;5137876;27;20045;-39
2021/06/13 02:41:43;;;;;;;14.90;7.68;;;;;;;11.93;72.16;102717.06;5138841;27;20396;-39
2021/06/13 02:44:08;;;;;;;18.23;9.02;;;;;;;11.97;72.68;102707.50;5137839;27;20027;-39
2021/06/13 02:46:34;;;;;;;14.00;8.07;;;;;;;11.85;72.31;102709.03;5138576;27;20030;-39
2021/06/13 02:48:59;;;;;;;16.58;8.75;;;;;;;11.93;72.59;102718.94;5138001;27;20061;-39
2021/06/13 02:51:33;;;;;;;14.20;7.03;;;;;;;11.85;72.61;102714.47;5138798;27;20023;-39
2021/06/13 02:54:07;;;;;;;16.52;8.10;;;;;;;11.76;72.38;102713.75;5138149;27;20477;-39
2021/06/13 02:57:00;;;;;;;15.77;7.90;;;;;;;11.77;72.06;102720.84;5138154;27;20328;-39
2021/06/13 02:59:44;;;;;;;14.05;8.65;;;;;;;11.74;72.51;102715.78;5137962;27;20520;-39
2021/06/13 03:02:13;;;;;;;14.80;8.43;;;;;;;11.60;73.61;102717.53;5138258;27;20470;-39
2021/06/13 03:04:41;;;;;;;13.95;8.32;;;;;;;11.60;72.36;102716.69;5137901;27;20456;-39
2021/06/13 03:07:07;;;;;;;14.27;7.93;;;;;;;11.64;72.77;102717.16;5137506;27;20023;-39
2021/06/13 03:09:35;;;;;;;14.48;8.07;;;;;;;11.56;73.12;102710.81;5137752;27;20071;-39
2021/06/13 03:12:01;;;;;;;18.65;7.75;;;;;;;11.51;72.70;102712.41;5137138;27;20027;-39
2021/06/13 03:14:30;;;;;;;16.95;9.15;;;;;;;11.48;73.58;102710.94;5137714;27;20026;-39
2021/06/13 03:16:57;;;;;;;15.50;8.27;;;;;;;11.46;74.42;102704.84;5137403;27;20030;-39
2021/06/13 03:19:24;;;;;;;13.52;8.52;;;;;;;11.48;73.64;102710.09;5137574;27;20050;-39
2021/06/13 03:21:51;;;;;;;16.20;8.98;;;;;;;11.49;73.73;102703.66;5137267;27;20027;-39
2021/06/13 03:24:18;;;;;;;17.45;8.60;;;;;;;11.46;73.62;102714.84;5137426;27;20070;-39
2021/06/13 03:26:44;;;;;;;16.48;9.27;;;;;;;11.41;74.68;102706.47;5137541;27;20031;-39
2021/06/13 03:29:11;;;;;;;15.13;8.73;;;;;;;11.45;74.39;102713.19;5137123;27;20034;-39
2021/06/13 03:31:36;;;;;;;;;;;;;;;11.67;72.03;102708.66;5137879;27;20019;-39
2021/06/13 03:34:03;;;;;;;19.02;10.00;;;;;;;11.43;75.68;102712.56;5136742;27;19914;-39
2021/06/13 03:36:29;;;;;;;;;;;;;;;11.64;72.83;102711.72;5137706;27;20031;-39
2021/06/13 03:38:55;;;;;;;13.68;8.40;;;;;;;11.42;73.53;102714.44;5136841;27;19914;-39
2021/06/13 03:41:22;;;;;;;16.58;9.68;;;;;;;11.49;74.29;102720.75;5136871;27;20027;-39
2021/06/13 03:43:49;;;;;;;16.77;9.15;;;;;;;11.47;74.93;102724.69;5136805;27;20401;-39
2021/06/13 03:46:16;;;;;;;17.65;8.73;;;;;;;11.46;74.97;102722.97;5137574;27;20022;-39
2021/06/13 03:48:42;;;;;;;17.00;8.80;;;;;;;11.44;74.32;102731.31;5136440;27;20076;-39
2021/06/13 03:51:09;;;;;;;19.10;10.07;;;;;;;11.49;74.51;102739.72;5137321;27;20027;-39
2021/06/13 03:53:46;;;;;;;15.23;8.70;;;;;;;11.55;75.38;102741.66;5136690;27;20026;-39
2021/06/13 03:56:12;;;;;;;;;;;;;;;11.75;72.80;102749.16;5137901;27;20462;-39
2021/06/13 03:58:39;;;;;;;17.02;8.60;;;;;;;11.62;74.98;102746.31;5136803;27;19962;-39
2021/06/13 04:01:05;;;;;;;;;;;;;;;11.83;72.37;102751.78;5137312;27;20070;-39
2021/06/13 04:03:32;;;;;;;19.90;8.88;;;;;;;11.59;75.72;102748.38;5136282;27;19903;-39
2021/06/13 04:05:59;;;;;;;15.55;9.25;;;;;;;11.66;75.20;102747.59;5137024;27;20019;-39
2021/06/13 04:08:24;;;;;;;17.33;8.85;;;;;;;11.67;75.00;102749.28;5136140;27;20442;-39
2021/06/13 04:10:52;;;;;;;19.52;9.40;;;;;;;11.62;75.13;102751.75;5136655;27;20102;-39
2021/06/13 04:13:18;;;;;;;17.05;9.43;;;;;;;11.67;74.94;102760.13;5136295;27;20016;-39
2021/06/13 04:15:44;;;;;;;19.05;10.30;;;;;;;11.58;75.62;102754.81;5137178;27;20452;-40
2021/06/13 04:18:11;;;;;;;19.90;10.27;;;;;;;11.75;75.33;102757.28;5136421;27;20035;-39
2021/06/13 04:20:37;;;;;;;19.85;9.77;;;;;;;11.84;76.31;102756.16;5136205;27;20451;-39
2021/06/13 04:23:04;;;;;;;18.35;9.98;;;;;;;11.80;75.47;102755.66;5135774;27;20029;-40
2021/06/13 04:25:30;;;;;;;20.45;9.00;;;;;;;11.93;75.03;102771.28;5136702;27;20050;-40
2021/06/13 04:27:57;;;;;;;18.17;10.07;;;;;;;11.85;75.79;102768.69;5136019;27;20031;-39
2021/06/13 04:30:24;;;;;;;18.38;9.90;;;;;;;12.04;75.50;102773.47;5136284;27;20363;-39
2021/06/13 04:32:50;;;;;;;16.38;9.65;;;;;;;11.99;75.83;102772.38;5135885;27;20023;-39
2021/06/13 04:35:15;;;;;;;18.15;10.25;;;;;;;12.00;76.68;102774.88;5135569;27;20058;-39
2021/06/13 04:37:41;;;;;;;18.17;10.00;;;;;;;12.03;76.60;102769.06;5135293;27;20042;-40
2021/06/13 04:40:07;;;;;;;16.67;9.57;;;;;;;12.11;76.72;102779.81;5136054;27;20252;-40
2021/06/13 04:42:32;;;;;;;21.65;10.35;;;;;;;12.14;76.54;102785.84;5135512;27;20076;-39
2021/06/13 04:44:58;;;;;;;18.43;10.33;;;;;;;12.26;75.88;102782.44;5136114;27;20027;-40
2021/06/13 04:47:23;;;;;;;20.67;11.05;;;;;;;12.36;76.61;102787.53;5135171;27;20056;-40
2021/06/13 04:49:52;;;;;;;20.87;9.50;;;;;;;12.62;75.96;102789.63;5135443;27;20023;-40
2021/06/13 04:52:18;;;;;;;16.40;8.98;;;;;;;12.66;75.81;102790.06;5135290;27;20027;-39
2021/06/13 04:54:47;;;;;;;18.33;9.70;;;;;;;12.76;75.54;102787.84;5136320;27;20027;-39
2021/06/13 04:57:24;;;;;;;21.00;10.60;;;;;;;12.98;74.81;102796.75;5134480;27;20471;-40
2021/06/13 04:59:49;;;;;;;22.85;10.45;;;;;;;12.83;75.37;102802.28;5134995;27;20462;-39
2021/06/13 05:02:15;;;;;;;17.93;9.50;;;;;;;13.01;75.43;102797.19;5135350;27;20105;-40
2021/06/13 05:04:41;;;;;;;18.80;10.52;;;;;;;13.11;74.89;102792.22;5135887;27;20079;-40
2021/06/13 05:07:06;;;;;;;18.85;9.82;;;;;;;13.18;74.13;102792.28;5135483;27;20027;-40
2021/06/13 05:09:32;;;;;;;18.33;9.73;;;;;;;13.26;74.30;102796.72;5135506;27;20026;-40
2021/06/13 05:11:57;;;;;;;21.80;9.97;;;;;;;13.36;73.45;102798.03;5135583;27;20442;-40
2021/06/13 05:14:23;;;;;;;21.73;9.43;;;;;;;13.35;73.72;102790.09;5135123;27;20019;-40
2021/06/13 05:16:48;;;;;;;15.48;8.95;;;;;;;13.46;73.59;102794.94;5135481;27;20079;-40
2021/06/13 05:19:13;;;;;;;16.77;9.50;;;;;;;13.64;72.93;102788.94;5134809;27;20023;-40
2021/06/13 05:21:39;;;;;;;18.85;9.27;;;;;;;13.63;72.48;102801.72;5134630;27;20023;-38
2021/06/13 05:24:06;;;;;;;20.55;9.77;;;;;;;13.67;72.95;102802.16;5134694;27;20122;-38
2021/06/13 05:26:31;;;;;;;19.13;9.77;;;;;;;13.77;72.24;102808.03;5135541;27;20023;-38
2021/06/13 05:28:57;;;;;;;17.38;9.63;;;;;;;13.85;72.01;102812.44;5134882;27;20374;-38
2021/06/13 05:31:22;;;;;;;16.42;8.82;;;;;;;13.97;71.46;102812.69;5134397;27;20031;-38
2021/06/13 05:33:48;;;;;;;21.77;9.95;;;;;;;13.97;71.97;102808.09;5134117;27;20027;-38
2021/06/13 05:36:14;;;;;;;16.17;8.63;;;;;;;14.04;71.47;102808.91;5134350;27;20088;-39
2021/06/13 05:38:41;;;;;;;15.25;7.95;;;;;;;14.13;70.68;102807.69;5134493;27;20020;-40
2021/06/13 05:41:13;;;;;;;18.05;8.68;;;;;;;14.15;71.43;102824.66;5134708;27;20023;-39
2021/06/13 05:43:40;;;;;;;17.05;8.80;;;;;;;14.28;70.05;102829.25;5134802;27;20076;-39
2021/06/13 05:46:07;;;;;;;14.05;8.10;;;;;;;14.42;70.26;102830.94;5134589;27;20026;-39
2021/06/13 05:48:33;;;;;;;16.30;8.48;;;;;;;14.55;70.15;102826.59;5134509;27;20083;-39
2021/06/13 05:51:03;;;;;;;13.68;7.93;;;;;;;14.54;69.51;102824.91;5134361;27;20027;-39
2021/06/13 05:53:29;;;;;;;13.75;8.05;;;;;;;14.52;69.66;102827.84;5135057;27;20019;-39
2021/06/13 05:55:54;;;;;;;18.10;8.70;;;;;;;14.58;69.73;102837.06;5134539;27;20026;-39
2021/06/13 05:58:20;;;;;;;13.48;7.35;;;;;;;14.62;69.02;102832.88;5134370;27;20047;-39
2021/06/13 06:00:48;;;;;;;15.25;8.27;;;;;;;14.72;68.95;102832.47;5135374;27;20027;-39
2021/06/13 06:03:14;;;;;;;12.15;7.50;;;;;;;14.82;68.32;102839.16;5134338;27;20405;-39
2021/06/13 06:05:39;;;;;;;14.68;7.93;;;;;;;14.77;68.41;102835.38;5134090;27;20031;-39
2021/06/13 06:08:05;;;;;;;13.40;6.75;;;;;;;14.91;67.90;102837.03;5134117;27;20079;-39
2021/06/13 06:10:33;;;;;;;16.02;7.40;;;;;;;14.95;67.66;102838.31;5137939;27;20076;-39
2021/06/13 06:13:04;;;;;;;14.70;7.30;;;;;;;15.01;67.03;102832.00;5138339;27;20023;-39
2021/06/13 06:15:32;;;;;;;13.25;6.80;;;;;;;15.02;67.06;102841.00;5138595;27;20027;-39
2021/06/13 06:17:57;;;;;;;14.90;6.72;;;;;;;15.08;67.24;102841.00;5138179;27;20027;-39
2021/06/13 06:20:29;;;;;;;18.90;7.38;;;;;;;15.20;67.55;102852.94;5138823;27;20469;-39
2021/06/13 06:22:55;;;;;;;19.35;7.93;;;;;;;15.27;66.54;102843.88;5138735;27;20015;-39
2021/06/13 06:25:21;;;;;;;15.82;7.82;;;;;;;15.28;66.79;102840.97;5138391;27;20122;-39
2021/06/13 06:27:46;;;;;;;14.55;7.82;;;;;;;15.30;66.77;102841.56;5138621;27;20026;-39
2021/06/13 06:30:13;;;;;;;14.23;6.57;;;;;;;15.45;65.20;102844.03;5138651;27;20113;-39
2021/06/13 06:32:40;;;;;;;13.45;6.55;;;;;;;15.43;65.65;102848.88;5138181;27;20114;-39
2021/06/13 06:35:07;;;;;;;13.70;7.45;;;;;;;15.27;65.39;102852.06;5138291;27;20029;-39
2021/06/13 06:37:32;;;;;;;15.13;7.00;;;;;;;15.20;65.45;102854.81;5138092;27;20046;-39
2021/06/13 06:39:58;;;;;;;;;;;;;;;15.48;65.52;102856.44;5138629;27;20097;-40
2021/06/13 06:42:23;;;;;;;15.87;8.00;;;;;;;15.37;65.28;102855.19;5138571;27;19903;-40
2021/06/13 06:44:48;;;;;;;11.32;5.75;;;;;;;15.46;65.79;102862.06;5138622;27;20015;-40
2021/06/13 06:47:14;;;;;;;10.63;4.95;;;;;;;15.63;64.91;102863.31;5138035;27;20023;-40
2021/06/13 06:49:39;;;;;;;18.95;5.50;;;;;;;15.65;60.79;102865.81;5138797;27;20027;-40
2021/06/13 06:52:06;;;;;;;14.02;5.15;;;;;;;15.59;59.86;102863.94;5137894;27;20080;-40
2021/06/13 06:54:32;;;;;;;9.35;4.78;;;;;;;15.56;60.46;102876.09;5138715;27;20025;-39
2021/06/13 06:56:57;;;;;;;;;;;;;;;15.88;62.53;102873.50;5136987;27;20019;-39
2021/06/13 06:59:22;;;;;;;10.57;5.32;;;;;;;15.91;62.55;102876.63;5137907;27;19914;-40
2021/06/13 07:01:48;;;;;;;12.30;5.50;;;;;;;15.85;61.80;102873.91;5137786;27;20046;-40
2021/06/13 07:04:13;;;;;;;13.52;6.30;;;;;;;15.84;61.14;102874.97;5138064;27;20451;-40
2021/06/13 07:06:39;;;;;;;12.75;5.80;;;;;;;15.84;61.25;102877.69;5137674;27;20015;-40
2021/06/13 07:09:04;;;;;;;12.90;5.82;;;;;;;15.66;61.57;102878.41;5137531;27;20034;-40
2021/06/13 07:11:30;;;;;;;14.35;6.15;;;;;;;15.47;61.99;102871.94;5138135;27;20105;-39
2021/06/13 07:13:55;;;;;;;14.40;5.63;;;;;;;15.49;63.33;102869.84;5137208;27;20370;-40
2021/06/13 07:16:21;;;;;;;12.85;6.57;;;;;;;15.45;62.07;102877.59;5137745;27;20019;-39
2021/06/13 07:18:47;;;;;;;14.25;5.93;;;;;;;15.45;62.24;102871.31;5137302;27;20408;-39
2021/06/13 07:21:12;;;;;;;13.55;5.68;;;;;;;15.52;61.64;102876.72;5136697;27;20462;-39
2021/06/13 07:23:38;;;;;;;9.97;5.70;;;;;;;15.70;61.36;102879.66;5137177;27;20051;-40
2021/06/13 07:26:03;;;;;;;;;;;;;;;15.93;61.78;102879.13;5137829;27;20026;-39
2021/06/13 07:28:31;;;;;;;12.75;5.55;;;;;;;16.04;60.01;102875.72;5137640;27;19908;-39
2021/06/13 07:30:56;;;;;;;11.85;6.03;;;;;;;15.99;59.75;102880.97;5137157;27;20079;-39
2021/06/13 07:33:25;;;;;;;;;;;;;;;16.11;60.34;102890.16;5137464;27;20019;-39
2021/06/13 07:35:52;;;;;;;10.55;4.38;;;;;;;15.90;60.29;102895.91;5137362;27;20262;-39
2021/06/13 07:38:17;;;;;;;11.07;4.57;;;;;;;16.15;59.85;102888.69;5137191;27;20031;-39
2021/06/13 07:40:42;;;;;;;;;;;;;;;16.33;59.62;102890.66;5137194;27;20422;-40
2021/06/13 07:43:08;;;;;;;11.00;5.10;;;;;;;16.11;57.81;102887.44;5136504;27;19915;-40
2021/06/13 07:45:34;;;;;;;12.70;5.07;;;;;;;16.23;58.57;102893.88;5137210;27;20114;-40
2021/06/13 07:47:59;;;;;;;11.52;4.55;;;;;;;16.48;58.07;102885.72;5137532;27;20268;-40
2021/06/13 07:50:25;;;;;;;;;;;;;;;16.76;58.83;102891.84;5138146;27;20160;-40
2021/06/13 07:52:50;;;;;;;11.55;5.28;;;;;;;16.85;57.05;102887.78;5136531;27;20338;-40
2021/06/13 07:55:18;;;;;;;;;;;;;;;17.01;58.64;102883.66;5137044;27;20027;-40
2021/06/13 07:57:45;;;;;;;10.93;4.97;;;;;;;16.83;56.59;102889.88;5136283;27;19910;-40
2021/06/13 08:00:13;;;;;;;10.23;4.30;;;;;;;16.78;56.75;102892.47;5136830;27;20025;-40
2021/06/13 08:02:39;;;;;;;11.80;4.40;;;;;;;16.81;56.46;102892.03;5136455;27;20019;-40
2021/06/13 08:05:10;;;;;;;;;;;;;;;17.03;57.25;102895.19;5137770;27;20025;-40
2021/06/13 08:07:36;;;;;;;9.65;4.18;;;;;;;17.07;55.10;102894.50;5137291;27;19903;-40
2021/06/13 08:10:03;;;;;;;;;;;;;;;17.25;56.14;102893.72;5136488;27;20026;-40
2021/06/13 08:12:28;;;;;;;10.47;4.33;;;;;;;17.28;55.10;102889.72;5136265;27;19946;-40
2021/06/13 08:14:54;;;;;;;;;;;;;;;17.40;54.83;102894.19;5136597;27;20407;-40
2021/06/13 08:17:19;;;;;;;9.77;3.80;;;;;;;17.28;54.28;102900.63;5136146;27;19903;-39
2021/06/13 08:19:45;;;;;;;;;;;;;;;17.34;54.98;102889.63;5136959;27;20053;-40
2021/06/13 08:22:11;;;;;;;9.00;4.47;;;;;;;17.19;55.09;102895.47;5136168;27;20339;-40
2021/06/13 08:24:37;;;;;;;8.90;4.57;;;;;;;17.45;53.66;102890.75;5136263;27;20301;-40
2021/06/13 08:27:02;;;;;;;;;;;;;;;17.69;54.88;102889.84;5136212;27;20046;-40
2021/06/13 08:29:29;;;;;;;7.88;4.32;;;;;;;17.70;53.19;102896.97;5135757;27;19903;-40
2021/06/13 08:31:54;;;;;;;7.95;4.07;;;;;;;17.87;52.03;102901.88;5135914;27;20054;-40
2021/06/13 08:34:19;;;;;;;;;;;;;;;18.06;52.88;102898.06;5136929;27;20047;-40
2021/06/13 08:36:45;;;;;;;8.13;3.70;;;;;;;17.98;50.66;102888.25;5136715;27;20347;-40
2021/06/13 08:39:10;;;;;;;;;;;;;;;18.31;51.33;102895.16;5136160;27;20023;-40
2021/06/13 08:41:35;;;;;;;8.45;4.10;;;;;;;18.31;52.12;102891.59;5136154;27;19915;-40
2021/06/13 08:44:01;;;;;;;;;;;;;;;18.56;52.96;102883.19;5135510;27;20023;-40
2021/06/13 08:46:27;;;;;;;8.85;3.80;;;;;;;18.51;49.49;102886.66;5136039;27;20007;-40
2021/06/13 08:48:53;;;;;;;8.10;4.10;;;;;;;18.64;47.74;102896.53;5135281;27;20538;-40
2021/06/13 08:51:20;;;;;;;;;;;;;;;18.89;50.74;102883.53;5136062;27;20104;-40
2021/06/13 08:53:45;;;;;;;8.50;4.00;;;;;;;18.90;48.94;102890.66;5135287;27;20273;-40
2021/06/13 08:56:11;;;;;;;;;;;;;;;19.21;50.80;102883.16;5136360;27;20023;-40
2021/06/13 08:58:36;;;;;;;8.30;3.75;;;;;;;19.16;47.04;102894.84;5135058;27;19907;-40
2021/06/13 09:01:02;;;;;;;;;;;;;;;19.41;48.37;102894.56;5136524;27;20051;-40
2021/06/13 09:03:27;;;;;;;7.47;3.63;;;;;;;19.28;47.72;102892.94;5135448;27;19993;-40
2021/06/13 09:05:52;;;;;;;;;;;;;;;19.54;49.36;102885.25;5135132;27;20034;-40
2021/06/13 09:08:18;;;;;;;9.05;3.72;;;;;;;19.31;47.28;102891.59;5135268;27;19904;-40
2021/06/13 09:10:44;;;;;;;;;;;;;;;19.66;49.27;102879.75;5135671;27;20062;-40
2021/06/13 09:13:25;;;;;;;10.38;3.85;;;;;;;19.52;48.37;102881.91;5134765;27;19930;-40
2021/06/13 09:15:55;;;;;;;7.07;3.78;;;;;;;19.33;48.84;102888.66;5135467;27;20058;-40
2021/06/13 09:18:38;;;;;;;9.45;4.43;;;;;;;19.12;49.63;102879.94;5135073;27;20027;-40
2021/06/13 09:21:08;;;;;;;10.68;4.70;;;;;;;19.47;47.92;102887.28;5135039;27;20047;-40
2021/06/13 09:23:35;;;;;;;9.82;4.30;;;;;;;19.65;46.88;102878.09;5134844;27;20370;-40
2021/06/13 09:26:06;;;;;;;10.70;4.03;;;;;;;19.69;45.10;102882.03;5134968;27;20073;-40
2021/06/13 09:28:34;;;;;;;6.95;3.40;;;;;;;19.87;44.47;102879.13;5135754;27;20046;-40
2021/06/13 09:31:00;;;;;;;8.05;4.20;;;;;;;20.04;44.04;102887.41;5134622;27;20042;-40
2021/06/13 09:33:35;;;;;;;;;;;;;;;20.42;46.22;102888.66;5134956;27;20022;-40
2021/06/13 09:36:04;;;;;;;8.43;3.38;;;;;;;20.17;43.25;102881.63;5135457;27;19952;-40
2021/06/13 09:38:37;;;;;;;8.88;3.97;;;;;;;20.38;43.71;102891.06;5134404;27;20023;-40
2021/06/13 09:41:10;;;;;;;7.07;3.22;;;;;;;20.57;43.50;102889.78;5134703;27;20040;-40
2021/06/13 09:43:37;;;;;;;7.75;3.60;;;;;;;20.49;43.33;102889.34;5134216;27;20019;-40
2021/06/13 09:46:03;;;;;;;9.48;3.80;;;;;;;20.66;42.99;102876.47;5135397;27;20106;-40
2021/06/13 09:48:29;;;;;;;8.30;4.05;;;;;;;20.81;42.67;102884.13;5134277;27;20051;-40
2021/06/13 09:50:56;;;;;;;;;;;;;;;21.16;44.45;102886.56;5135375;27;20031;-40
2021/06/13 09:53:27;;;;;;;6.68;3.50;;;;;;;21.06;42.18;102880.94;5134550;27;19971;-40
2021/06/13 09:56:19;;;;;;;9.75;4.30;;;;;;;21.23;42.17;102890.00;5135088;27;20062;-40
2021/06/13 09:58:52;;;;;;;8.13;3.55;;;;;;;21.16;42.37;102891.25;5051407;28;20108;-40
2021/06/13 10:01:20;;;;;;;8.50;3.95;;;;;;;20.86;41.58;102880.63;5051828;28;20112;-40
2021/06/13 10:03:49;;;;;;;8.95;3.75;;;;;;;21.09;42.47;102874.94;5051713;28;20036;-40
2021/06/13 10:06:18;;;;;;;7.40;3.38;;;;;;;21.25;43.09;102876.81;5051000;28;20517;-40
2021/06/13 10:08:43;;;;;;;7.60;3.65;;;;;;;21.41;42.70;102877.03;5051386;28;20087;-40
2021/06/13 10:11:09;;;;;;;;;;;;;;;21.81;42.82;102874.81;5051910;28;20037;-41
2021/06/13 10:13:37;;;;;;;8.15;3.72;;;;;;;21.53;43.08;102872.25;5050877;28;20304;-40
2021/06/13 10:16:03;;;;;;;7.20;3.30;;;;;;;21.74;41.34;102870.59;5051499;28;20036;-40
2021/06/13 10:18:30;;;;;;;5.57;3.35;;;;;;;21.80;40.78;102869.53;5050831;28;20380;-40
2021/06/13 10:21:11;;;;;;;7.32;3.33;;;;;;;21.75;41.41;102873.06;5051510;28;20412;-40
2021/06/13 10:23:37;;;;;;;6.63;3.50;;;;;;;21.53;39.99;102870.34;5050751;28;20029;-40
2021/06/13 10:26:03;;;;;;;7.70;3.50;;;;;;;21.60;40.40;102870.97;5034804;28;20375;-40
2021/06/13 10:28:29;;;;;;;6.35;3.05;;;;;;;21.54;40.72;102860.16;5050823;28;20041;-40
2021/06/13 10:30:56;;;;;;;6.53;3.58;;;;;;;21.95;39.99;102863.38;5051383;28;20036;-40
2021/06/13 10:33:24;;;;;;;8.25;3.70;;;;;;;22.22;39.32;102861.50;5050760;28;20021;-40
2021/06/13 10:35:49;;;;;;;6.53;3.22;;;;;;;22.24;39.94;102845.53;5102736;28;20110;-40
2021/06/13 10:38:15;;;;;;;6.30;3.50;;;;;;;22.22;39.64;102855.97;5134103;27;20102;-40
2021/06/13 10:40:40;;;;;;;5.85;3.15;;;;;;;22.09;39.82;102856.38;5134401;27;20465;-40
2021/06/13 10:43:06;;;;;;;8.57;3.30;;;;;;;22.39;38.63;102857.78;5134144;27;20462;-40
2021/06/13 10:45:32;;;;;;;6.13;3.00;;;;;;;22.36;38.83;102857.22;5133819;28;20023;-40
2021/06/13 10:48:09;;;;;;;6.72;2.83;;;;;;;22.36;38.02;102859.16;5134068;27;20102;-40
2021/06/13 10:50:37;;;;;;;8.32;3.50;;;;;;;22.50;38.34;102857.63;5134678;27;20026;-40
2021/06/13 10:53:04;;;;;;;7.03;3.22;;;;;;;22.31;37.65;102848.09;5134020;27;20019;-40
2021/06/13 10:55:53;;;;;;;7.47;3.15;;;;;;;22.54;37.91;102853.22;5135385;27;20023;-40
2021/06/13 10:58:45;;;;;;;8.82;3.65;;;;;;;22.75;37.82;102851.47;5138140;27;20037;-41
2021/06/13 11:01:24;;;;;;;6.53;3.35;;;;;;;22.87;37.46;102843.00;5138363;27;20388;-40
2021/06/13 11:04:08;;;;;;;7.90;4.03;;;;;;;23.01;37.60;102855.25;5138020;27;20083;-41
2021/06/13 11:06:36;;;;;;;5.72;2.88;;;;;;;23.18;36.68;102855.09;5138036;27;20053;-40
2021/06/13 11:09:07;;;;;;;7.82;3.15;;;;;;;23.36;36.46;102854.63;5137720;27;20371;-41
2021/06/13 11:11:34;;;;;;;6.70;3.20;;;;;;;23.26;34.78;102849.03;5137901;27;20420;-41
2021/06/13 11:14:26;;;;;;;7.20;2.97;;;;;;;22.52;35.78;102849.91;5137274;27;20019;-40
2021/06/13 11:16:53;;;;;;;8.20;3.45;;;;;;;21.93;36.78;102849.03;5137887;27;20030;-40
2021/06/13 11:19:32;;;;;;;5.78;3.03;;;;;;;22.32;37.32;102846.97;5137910;27;20055;-41
2021/06/13 11:22:18;;;;;;;7.30;3.00;;;;;;;22.46;39.52;102847.38;5137499;27;20107;-40
2021/06/13 11:24:46;;;;;;;6.97;3.20;;;;;;;22.38;37.59;102842.34;5138093;27;20096;-41
2021/06/13 11:27:12;;;;;;;9.43;3.03;;;;;;;22.71;36.84;102836.53;5137632;27;20102;-41
2021/06/13 11:29:49;;;;;;;5.65;3.28;;;;;;;22.94;36.58;102840.06;5137283;27;20454;-41